Time;durP1;ratioP1;P1;durP2;ratioP2;P2;SDS_P1;SDS_P2;PMS_P1;PMS_P2;Temp;Humidity;BMP_temperature;BMP_pressure;BME280_temperature;BME280_humidity;BME280_pressure;Samples;Min_cycle;Max_cycle;Signal;HPM_P1;HPM_P2
2022/03/21 00:02:12;;;;;;;;;69.67;55.33;;;;;8.26;100.00;102324.88;5082876;27;45418;-82
2022/03/21 00:04:38;;;;;;;;;69.00;54.33;;;;;8.23;100.00;102315.28;5080160;27;45020;-84
2022/03/21 00:07:04;;;;;;;;;68.33;51.67;;;;;8.23;100.00;102314.41;5080988;27;45226;-83
2022/03/21 00:09:29;;;;;;;;;73.00;55.00;;;;;8.23;100.00;102317.06;5080060;28;44770;-83
2022/03/21 00:11:55;;;;;;;;;72.00;55.00;;;;;8.22;100.00;102313.53;5085560;27;44860;-83
2022/03/21 00:14:20;;;;;;;;;68.33;54.33;;;;;8.20;100.00;102314.50;5084584;27;44880;-83
2022/03/21 00:16:46;;;;;;;;;69.33;52.67;;;;;8.18;100.00;102314.56;5083155;27;46094;-82
2022/03/21 00:19:11;;;;;;;;;75.00;54.67;;;;;8.18;100.00;102321.63;5083382;27;44823;-82
2022/03/21 00:21:37;;;;;;;;;67.00;53.00;;;;;8.16;100.00;102319.00;5081719;27;45393;-83
2022/03/21 00:24:03;;;;;;;;;66.67;53.67;;;;;8.17;100.00;102326.06;5081164;27;45371;-83
2022/03/21 00:26:29;;;;;;;;;66.67;53.00;;;;;8.17;100.00;102327.81;5080876;27;45390;-84
2022/03/21 00:28:54;;;;;;;;;67.33;52.67;;;;;8.13;100.00;102318.25;5081165;27;45460;-83
2022/03/21 00:31:21;;;;;;;;;63.33;51.00;;;;;8.13;100.00;102320.91;5085479;27;45377;-82
2022/03/21 00:33:47;;;;;;;;;66.67;54.00;;;;;8.12;100.00;102320.03;5084891;27;45130;-82
2022/03/21 00:36:12;;;;;;;;;65.33;51.00;;;;;8.12;100.00;102322.69;5082127;27;45990;-82
2022/03/21 00:38:41;;;;;;;;;67.00;53.00;;;;;8.11;100.00;102320.06;5080497;27;45166;-82
2022/03/21 00:41:07;;;;;;;;;64.33;52.00;;;;;8.10;100.00;102327.16;5079832;27;45449;-82
2022/03/21 00:43:33;;;;;;;;;65.67;52.67;;;;;8.08;100.00;102323.69;5079971;27;45366;-83
2022/03/21 00:45:59;;;;;;;;;63.67;49.67;;;;;8.06;100.00;102322.00;5078667;27;46947;-83
2022/03/21 00:48:30;;;;;;;;;61.00;48.67;;;;;8.04;100.00;102329.13;5082730;27;44691;-85
2022/03/21 00:50:57;;;;;;;;;71.33;52.33;;;;;8.01;100.00;102323.91;5082504;27;44896;-83
2022/03/21 00:53:23;;;;;;;;;72.00;56.00;;;;;7.98;100.00;102325.75;5088748;27;44943;-82
2022/03/21 00:55:49;;;;;;;;;67.33;51.67;;;;;7.97;100.00;102318.72;5089647;27;45509;-83
2022/03/21 00:58:16;;;;;;;;;63.00;47.67;;;;;7.96;100.00;102319.63;5088506;27;44828;-83
2022/03/21 01:00:42;;;;;;;;;69.67;54.00;;;;;7.96;100.00;102321.41;5084069;27;44851;-83
2022/03/21 01:03:08;;;;;;;;;63.67;49.67;;;;;7.93;100.00;102314.47;5083763;27;45328;-83
2022/03/21 01:05:34;;;;;;;;;66.00;51.00;;;;;7.94;100.00;102317.97;5079246;27;47863;-81
2022/03/21 01:08:02;;;;;;;;;65.00;49.33;;;;;7.94;100.00;102310.03;5078609;28;45456;-83
2022/03/21 01:10:29;;;;;;;;;67.67;51.00;;;;;7.95;100.00;102314.41;5079706;28;44845;-83
2022/03/21 01:12:55;;;;;;;;;63.33;49.00;;;;;7.94;100.00;102310.88;5079642;27;45173;-82
2022/03/21 01:15:24;;;;;;;;;68.50;52.00;;;;;7.95;100.00;102317.91;5078569;27;45311;-83
2022/03/21 01:17:51;;;;;;;;;72.00;53.33;;;;;7.96;100.00;102311.69;5080560;27;44670;-82
2022/03/21 01:20:19;;;;;;;;;70.67;52.33;;;;;7.97;100.00;102316.06;5085915;27;45393;-83
2022/03/21 01:22:45;;;;;;;;;62.33;49.67;;;;;7.99;100.00;102316.91;5087007;27;44957;-83
2022/03/21 01:25:11;;;;;;;;;66.33;51.67;;;;;8.03;100.00;102316.81;5085472;27;44983;-83
2022/03/21 01:27:38;;;;;;;;;67.33;55.00;;;;;8.07;100.00;102324.59;5079414;27;45260;-81
2022/03/21 01:30:05;;;;;;;;;68.33;52.33;;;;;8.11;100.00;102320.94;5078472;27;45418;-82
2022/03/21 01:32:33;;;;;;;;;66.00;51.00;;;;;8.15;100.00;102317.28;5078455;27;45303;-82
2022/03/21 01:34:58;;;;;;;;;67.33;51.67;;;;;8.19;100.00;102320.72;5077134;27;45396;-81
2022/03/21 01:37:24;;;;;;;;;71.67;53.33;;;;;8.22;100.00;102321.50;5079222;27;45304;-82
2022/03/21 01:39:49;;;;;;;;;55.00;46.67;;;;;8.28;100.00;102319.56;5082101;27;45272;-83
2022/03/21 01:42:15;;;;;;;;;66.33;51.00;;;;;8.31;100.00;102324.75;5081131;27;45560;-82
2022/03/21 01:44:41;;;;;;;;;68.33;49.33;;;;;8.34;100.00;102317.56;5079861;27;46387;-82
2022/03/21 01:47:06;;;;;;;;;65.67;50.00;;;;;8.37;100.00;102319.31;5079050;27;45417;-82
2022/03/21 01:49:32;;;;;;;;;65.67;51.00;;;;;8.38;100.00;102313.94;5079496;27;45280;-81
2022/03/21 01:51:57;;;;;;;;;65.33;51.00;;;;;8.41;100.00;102320.91;5080209;27;44780;-83
2022/03/21 01:57:07;;;;;;;;;68.00;50.67;;;;;8.44;100.00;102311.09;5078502;28;45379;-81
2022/03/21 01:59:34;;;;;;;;;66.33;50.67;;;;;8.43;100.00;102316.44;5078583;27;44714;-80
2022/03/21 02:01:59;;;;;;;;;65.00;50.00;;;;;8.44;100.00;102315.53;5078015;27;45486;-80
2022/03/21 02:04:25;;;;;;;;;65.00;50.00;;;;;8.44;100.00;102328.75;5077592;27;45406;-81
2022/03/21 02:06:50;;;;;;;;;66.00;51.00;;;;;8.40;100.00;102317.41;5077460;27;45375;-80
2022/03/21 02:09:16;;;;;;;;;66.33;50.67;;;;;8.38;100.00;102313.09;5076447;27;45450;-81
2022/03/21 02:11:42;;;;;;;;;67.00;52.33;;;;;8.32;100.00;102314.13;5077909;27;45394;-80
2022/03/21 02:14:10;;;;;;;;;64.00;50.00;;;;;8.33;100.00;102314.97;5077608;27;45005;-80
2022/03/21 02:16:37;;;;;;;;;63.00;50.33;;;;;8.33;100.00;102314.97;5077518;27;44753;-81
2022/03/21 02:19:26;;;;;;;;;68.00;51.67;;;;;8.35;100.00;102314.00;5079505;27;44822;-80
2022/03/21 02:21:57;;;;;;;;;67.00;50.00;;;;;8.39;100.00;102317.47;5084493;27;45492;-79
2022/03/21 02:24:34;;;;;;;;;67.00;49.67;;;;;8.39;100.00;102314.81;5083491;27;45375;-80
2022/03/21 02:27:01;;;;;;;;;68.33;52.00;;;;;8.40;100.00;102314.75;5080977;27;45603;-81
2022/03/21 02:29:29;;;;;;;;;63.67;49.00;;;;;8.38;100.00;102311.28;5079081;27;44816;-80
2022/03/21 02:31:55;;;;;;;;;66.00;52.00;;;;;8.38;100.00;102315.72;5077206;27;44974;-81
2022/03/21 02:34:26;;;;;;;;;69.00;53.33;;;;;8.35;100.00;102313.13;5077467;27;45370;-80
2022/03/21 02:36:55;;;;;;;;;68.00;52.33;;;;;8.32;100.00;102300.88;5078177;27;44825;-81
2022/03/21 02:39:22;;;;;;;;;66.33;50.67;;;;;8.29;100.00;102302.75;5077645;27;45378;-81
2022/03/21 02:41:48;;;;;;;;;67.67;53.33;;;;;8.28;100.00;102306.31;5077382;27;45343;-81
2022/03/21 02:44:13;;;;;;;;;60.67;47.67;;;;;8.29;100.00;102305.41;5076017;27;47029;-81
2022/03/21 02:46:38;;;;;;;;;66.33;49.67;;;;;8.29;100.00;102300.09;5075962;27;45454;-82
2022/03/21 02:49:04;;;;;;;;;69.33;50.67;;;;;8.30;100.00;102294.75;5076987;27;45449;-80
2022/03/21 02:51:36;;;;;;;;;67.33;50.33;;;;;8.32;100.00;102285.00;5077147;27;45297;-80
2022/03/21 02:54:02;;;;;;;;;73.33;53.00;;;;;8.34;100.00;102293.75;5068015;27;45243;-81
2022/03/21 02:56:27;;;;;;;;;62.67;50.33;;;;;8.36;100.00;102283.09;5059537;28;45465;-81
2022/03/21 02:58:53;;;;;;;;;67.67;50.00;;;;;8.37;100.00;102295.47;5057675;27;45312;-81
2022/03/21 03:01:19;;;;;;;;;62.67;48.33;;;;;8.39;100.00;102291.84;5055684;28;45372;-80
2022/03/21 03:03:45;;;;;;;;;65.67;51.33;;;;;8.42;100.00;102288.25;5056787;28;45079;-81
2022/03/21 03:06:11;;;;;;;;;68.33;52.00;;;;;8.44;100.00;102291.69;5057360;28;44734;-80
2022/03/21 03:08:41;;;;;;;;;63.67;49.00;;;;;8.47;100.00;102294.25;5057556;28;44798;-80
2022/03/21 03:11:06;;;;;;;;;63.33;52.00;;;;;8.49;100.00;102297.69;5057550;28;44832;-81
2022/03/21 03:13:32;;;;;;;;;63.00;51.00;;;;;8.49;100.00;102298.56;5056462;28;45180;-82
2022/03/21 03:15:59;;;;;;;;;65.00;49.67;;;;;8.52;100.00;102297.59;5055188;27;45469;-82
2022/03/21 03:18:24;;;;;;;;;67.33;52.00;;;;;8.53;100.00;102301.97;5056258;28;44839;-81
2022/03/21 03:20:52;;;;;;;;;67.33;49.67;;;;;8.55;100.00;102309.88;5055284;28;45467;-80
2022/03/21 03:23:19;;;;;;;;;67.33;52.00;;;;;8.55;100.00;102300.13;5063517;28;45408;-81
2022/03/21 03:25:46;;;;;;;;;70.00;51.33;;;;;8.56;100.00;102299.25;5069653;28;44700;-80
2022/03/21 03:28:12;;;;;;;;;65.00;52.00;;;;;8.54;100.00;102295.75;5061840;28;45228;-81
2022/03/21 03:30:39;;;;;;;;;67.33;52.00;;;;;8.56;100.00;102295.69;5062014;28;45189;-81
2022/03/21 03:33:06;;;;;;;;;68.33;52.33;;;;;8.57;100.00;102303.63;5057819;28;46987;-81
2022/03/21 03:35:31;;;;;;;;;66.00;52.00;;;;;8.57;100.00;102306.25;5057485;28;44831;-81
2022/03/21 03:37:57;;;;;;;;;67.67;50.00;;;;;8.59;100.00;102308.84;5057592;28;45496;-80
2022/03/21 03:40:22;;;;;;;;;70.33;53.00;;;;;8.58;100.00;102304.47;5061044;28;44841;-82
2022/03/21 03:42:49;;;;;;;;;69.67;54.00;;;;;8.59;100.00;102308.84;5060223;28;45514;-81
2022/03/21 03:45:14;;;;;;;;;68.00;52.33;;;;;8.59;100.00;102315.00;5058424;28;44881;-82
2022/03/21 03:47:41;;;;;;;;;67.67;50.00;;;;;8.63;100.00;102315.78;5057330;27;45891;-81
2022/03/21 03:50:07;;;;;;;;;71.00;53.33;;;;;8.62;100.00;102309.63;5056347;28;45496;-80
2022/03/21 03:52:33;;;;;;;;;66.67;52.67;;;;;8.63;100.00;102306.06;5056047;28;45352;-81
2022/03/21 03:54:58;;;;;;;;;70.67;55.00;;;;;8.67;100.00;102312.13;5060716;28;45359;-81
2022/03/21 03:57:23;;;;;;;;;63.33;48.00;;;;;8.67;100.00;102306.81;5060248;28;45549;-82
2022/03/21 03:59:49;;;;;;;;;67.33;51.67;;;;;8.69;100.00;102313.78;5056342;28;45314;-80
2022/03/21 04:02:14;;;;;;;;;66.00;52.67;;;;;8.69;100.00;102312.91;5055640;28;45390;-79
2022/03/21 04:04:40;;;;;;;;;61.67;50.00;;;;;8.70;100.00;102317.28;5055815;28;44778;-81
2022/03/21 04:07:06;;;;;;;;;70.33;52.00;;;;;8.71;100.00;102311.09;5053898;28;45473;-80
2022/03/21 04:09:31;;;;;;;;;68.00;52.00;;;;;8.69;100.00;102305.84;5055693;28;44813;-82
2022/03/21 04:11:57;;;;;;;;;63.00;50.00;;;;;8.70;100.00;102314.66;5055712;28;45632;-81
2022/03/21 04:14:22;;;;;;;;;67.00;50.33;;;;;8.71;100.00;102319.06;5055481;28;45376;-81
2022/03/21 04:16:48;;;;;;;;;65.00;50.00;;;;;8.71;100.00;102322.56;5054325;28;45367;-81
2022/03/21 04:19:13;;;;;;;;;64.67;51.00;;;;;8.71;100.00;102324.34;5055794;28;44877;-82
2022/03/21 04:21:39;;;;;;;;;65.67;51.00;;;;;8.71;100.00;102327.88;5055628;27;45001;-81
2022/03/21 04:24:05;;;;;;;;;68.00;51.33;;;;;8.71;100.00;102322.56;5056066;28;44901;-81
2022/03/21 04:26:30;;;;;;;;;64.00;50.33;;;;;8.75;100.00;102329.50;5063656;28;45389;-81
2022/03/21 04:28:55;;;;;;;;;64.00;49.33;;;;;8.77;100.00;102331.22;5061068;28;44907;-81
2022/03/21 04:31:21;;;;;;;;;70.33;52.67;;;;;8.78;100.00;102336.47;5058866;28;45013;-82
2022/03/21 04:33:47;;;;;;;;;65.67;49.00;;;;;8.80;100.00;102341.69;5058410;28;45384;-81
2022/03/21 04:36:13;;;;;;;;;64.67;51.00;;;;;8.81;100.00;102335.50;5055481;28;45234;-81
2022/03/21 04:38:39;;;;;;;;;70.67;55.67;;;;;8.82;100.00;102348.69;5055509;28;44747;-81
2022/03/21 04:41:05;;;;;;;;;63.33;48.00;;;;;8.82;100.00;102340.75;5055236;28;45491;-81
2022/03/21 04:43:30;;;;;;;;;65.67;51.33;;;;;8.84;100.00;102340.69;5054440;28;45294;-81
2022/03/21 04:45:56;;;;;;;;;70.00;50.33;;;;;8.85;100.00;102345.06;5057496;28;44706;-81
2022/03/21 04:48:21;;;;;;;;;66.33;52.33;;;;;8.86;100.00;102349.47;5055863;28;45437;-81
2022/03/21 04:50:47;;;;;;;;;70.67;52.33;;;;;8.88;100.00;102347.63;5057615;28;45254;-81
2022/03/21 04:53:12;;;;;;;;;72.33;53.00;;;;;8.89;100.00;102357.28;5069799;27;45945;-81
2022/03/21 04:55:40;;;;;;;;;71.67;52.67;;;;;8.90;100.00;102361.69;5101311;27;44809;-80
2022/03/21 04:58:05;;;;;;;;;64.67;49.67;;;;;8.90;100.00;102362.56;5106280;27;44926;-80
2022/03/21 05:00:31;;;;;;;;;63.67;50.00;;;;;8.94;100.00;102365.94;5101343;27;45037;-82
2022/03/21 05:02:57;;;;;;;;;60.33;48.00;;;;;8.95;100.00;102362.41;5099733;27;44860;-79
2022/03/21 05:05:24;;;;;;;;;65.33;50.33;;;;;8.96;100.00;102357.03;5099526;27;45548;-81
2022/03/21 05:07:52;;;;;;;;;69.33;51.67;;;;;8.96;100.00;102362.34;5099885;27;44971;-81
2022/03/21 05:10:19;;;;;;;;;65.33;49.67;;;;;8.98;100.00;102368.44;5099312;27;46137;-81
2022/03/21 05:12:46;;;;;;;;;66.00;47.67;;;;;9.01;100.00;102368.34;5099971;27;45152;-82
2022/03/21 05:15:11;;;;;;;;;68.00;52.33;;;;;9.02;100.00;102356.81;5102174;27;44803;-81
2022/03/21 05:17:38;;;;;;;;;64.00;50.67;;;;;9.06;100.00;102362.03;5103181;27;44876;-81
2022/03/21 05:20:12;;;;;;;;;65.00;49.00;;;;;9.07;100.00;102361.09;5103143;27;45308;-81
2022/03/21 05:22:37;;;;;;;;;63.00;49.67;;;;;9.08;100.00;102366.34;5101459;27;44795;-82
2022/03/21 05:35:59;;;;;;;;;60.33;48.67;;;;;9.11;100.00;102366.25;5099257;27;45364;-81
2022/03/21 05:38:26;;;;;;;;;57.00;47.00;;;;;9.10;100.00;102376.91;5098696;27;44894;-80
2022/03/21 05:40:56;;;;;;;;;64.00;49.00;;;;;9.06;100.00;102381.44;5098560;27;45148;-81
2022/03/21 05:43:22;;;;;;;;;63.67;51.33;;;;;9.02;100.00;102370.06;5096880;27;45577;-82
2022/03/21 05:45:49;;;;;;;;;65.67;50.00;;;;;9.00;100.00;102379.88;5098853;27;45571;-82
2022/03/21 05:51:00;;;;;;;;;66.67;52.67;;;;;8.88;100.00;102382.94;5098866;27;45341;-82
2022/03/21 05:53:25;;;;;;;;;65.67;51.67;;;;;8.85;100.00;102388.34;5091535;27;45474;-82
2022/03/21 05:55:51;;;;;;;;;62.33;50.33;;;;;8.84;100.00;102389.25;5078415;27;44747;-83
2022/03/21 05:58:16;;;;;;;;;64.33;51.33;;;;;8.84;100.00;102388.38;5079579;27;45211;-81
2022/03/21 06:00:42;;;;;;;;;68.67;49.67;;;;;8.83;100.00;102397.25;5078170;27;45937;-81
2022/03/21 06:03:08;;;;;;;;;66.00;53.00;;;;;8.83;100.00;102400.78;5079174;27;45160;-82
2022/03/21 06:05:35;;;;;;;;;61.33;49.33;;;;;8.82;100.00;102392.88;5081421;27;45157;-82
2022/03/21 06:08:00;;;;;;;;;72.00;50.67;;;;;8.80;100.00;102403.53;5081204;27;44832;-83
2022/03/21 06:10:26;;;;;;;;;60.00;50.00;;;;;8.79;100.00;102412.38;5081748;27;45025;-82
2022/03/21 06:12:51;;;;;;;;;68.67;50.67;;;;;8.80;100.00;102402.66;5077480;27;44732;-82
2022/03/21 06:15:17;;;;;;;;;62.67;49.33;;;;;8.81;100.00;102415.88;5077866;27;45493;-83
2022/03/21 06:17:43;;;;;;;;;66.67;50.00;;;;;8.83;100.00;102411.38;5077917;27;45468;-82
2022/03/21 06:20:14;;;;;;;;;61.67;49.33;;;;;8.86;100.00;102413.94;5076954;27;46763;-82
2022/03/21 06:22:40;;;;;;;;;67.33;51.00;;;;;8.88;100.00;102416.53;5079600;27;44816;-83
2022/03/21 06:25:10;;;;;;;;;70.33;56.00;;;;;8.92;100.00;102426.09;5078309;27;44759;-81
2022/03/21 06:27:39;;;;;;;;;63.33;51.33;;;;;8.94;100.00;102426.91;5077512;27;44851;-82
2022/03/21 06:30:06;;;;;;;;;69.67;50.67;;;;;8.97;100.00;102432.97;5077656;27;45385;-83
2022/03/21 06:32:32;;;;;;;;;64.00;48.67;;;;;8.99;100.00;102435.56;5080685;27;45253;-83
2022/03/21 06:34:58;;;;;;;;;65.67;49.00;;;;;9.00;100.00;102432.91;5082211;27;45560;-83
2022/03/21 06:37:23;;;;;;;;;61.00;45.67;;;;;9.01;100.00;102444.38;5080644;27;44902;-82
2022/03/21 06:39:49;;;;;;;;;63.00;49.00;;;;;9.02;100.00;102443.44;5076929;27;46580;-84
2022/03/21 06:42:14;;;;;;;;;63.67;48.00;;;;;9.03;100.00;102447.81;5078204;27;45513;-84
2022/03/21 06:44:41;;;;;;;;;70.00;53.00;;;;;9.08;100.00;102453.84;5079050;27;44779;-84
2022/03/21 06:47:07;;;;;;;;;66.00;53.00;;;;;9.09;100.00;102455.59;5078220;27;45571;-84
2022/03/21 06:49:33;;;;;;;;;63.00;51.67;;;;;9.15;100.00;102450.06;5076926;27;45359;-84
2022/03/21 06:52:02;;;;;;;;;64.33;51.00;;;;;9.22;100.00;102464.84;5077704;27;45337;-83
2022/03/21 06:54:29;;;;;;;;;70.67;53.67;;;;;9.31;100.00;102461.03;5093304;27;44820;-83
2022/03/21 06:56:56;;;;;;;;;69.00;54.00;;;;;9.37;100.00;102470.56;5096309;27;44890;-84
2022/03/21 06:59:23;;;;;;;;;65.00;50.00;;;;;9.44;100.00;102465.00;5095878;27;46877;-83
2022/03/21 07:01:49;;;;;;;;;65.33;51.00;;;;;9.55;100.00;102467.28;5097837;27;44764;-84
2022/03/21 07:04:14;;;;;;;;;69.33;52.67;;;;;9.65;100.00;102471.34;5097919;27;45335;-83
2022/03/21 07:06:40;;;;;;;;;66.67;52.33;;;;;9.75;100.00;102467.44;5099730;27;45366;-85
2022/03/21 07:09:05;;;;;;;;;65.33;50.33;;;;;9.85;100.00;102473.28;5103817;27;44982;-83
2022/03/21 07:11:32;;;;;;;;;68.67;51.00;;;;;9.96;100.00;102473.78;5099956;27;44786;-83
2022/03/21 07:13:57;;;;;;;;;66.33;52.00;;;;;10.04;100.00;102474.34;5098957;27;44861;-83
2022/03/21 07:16:23;;;;;;;;;64.00;50.67;;;;;10.13;100.00;102470.47;5099533;27;44848;-85
2022/03/21 07:18:49;;;;;;;;;62.67;50.33;;;;;10.20;100.00;102471.09;5099511;27;45420;-82
2022/03/21 07:21:16;;;;;;;;;65.33;50.00;;;;;10.31;100.00;102465.44;5100097;27;45380;-84
2022/03/21 07:23:42;;;;;;;;;63.67;49.00;;;;;10.53;100.00;102471.66;5099115;27;45316;-83
2022/03/21 07:26:07;;;;;;;;;65.33;49.67;;;;;10.80;100.00;102465.25;5099649;27;45527;-83
2022/03/21 07:28:32;;;;;;;;;59.00;44.67;;;;;11.09;100.00;102465.88;5099641;27;45319;-84
2022/03/21 07:30:59;;;;;;;;;60.00;48.00;;;;;11.39;100.00;102477.00;5106527;27;45219;-83
2022/03/21 07:33:25;;;;;;;;;60.33;47.33;;;;;11.62;100.00;102465.38;5109400;27;44744;-83
2022/03/21 07:35:53;;;;;;;;;63.67;48.67;;;;;11.77;100.00;102471.81;5111150;27;44829;-85
2022/03/21 07:38:22;;;;;;;;;64.33;49.67;;;;;11.81;100.00;102471.63;5107707;27;45250;-84
2022/03/21 07:40:48;;;;;;;;;56.33;45.67;;;;;11.87;100.00;102469.66;5107610;27;44542;-83
2022/03/21 07:43:13;;;;;;;;;59.33;44.67;;;;;11.91;100.00;102468.59;5097983;27;45150;-85
2022/03/21 07:48:27;;;;;;;;;53.67;44.33;;;;;12.21;100.00;102471.66;5102181;27;45446;-84
2022/03/21 07:50:54;;;;;;;;;56.33;45.00;;;;;12.39;100.00;102469.94;5097579;27;45291;-84
2022/03/21 07:53:19;;;;;;;;;56.33;43.00;;;;;12.57;100.00;102477.06;5092495;27;45181;-84
2022/03/21 07:55:45;;;;;;;;;55.67;43.00;;;;;12.70;100.00;102472.88;5076352;27;45420;-84
2022/03/21 07:58:10;;;;;;;;;56.00;43.67;;;;;12.78;100.00;102472.53;5076440;27;45402;-84
2022/03/21 08:00:36;;;;;;;;;55.00;44.33;;;;;12.79;100.00;102477.78;5081204;27;45460;-81
2022/03/21 08:03:02;;;;;;;;;49.67;42.33;;;;;12.76;100.00;102469.03;5081020;27;45350;-84
2022/03/21 08:05:28;;;;;;;;;55.67;44.00;;;;;12.84;100.00;102481.06;5079162;27;44900;-85
2022/03/21 08:07:58;;;;;;;;;54.67;43.67;;;;;12.98;100.00;102474.22;5080302;27;45228;-83
2022/03/21 08:10:24;;;;;;;;;53.67;42.00;;;;;13.07;100.00;102474.63;5080962;27;44754;-86
2022/03/21 08:12:49;;;;;;;;;49.33;38.67;;;;;13.23;100.00;102482.75;5082783;27;45264;-86
2022/03/21 08:15:17;;;;;;;;;52.33;42.33;;;;;13.34;100.00;102491.09;5079385;27;45338;-85
2022/03/21 08:18:00;;;;;;;;;52.67;42.00;;;;;13.45;100.00;102487.03;5080132;27;45622;-83
2022/03/21 08:20:35;;;;;;;;;52.67;43.00;;;;;13.50;100.00;102483.16;5081436;27;45446;-84
2022/03/21 08:23:03;;;;;;;;;53.00;40.33;;;;;13.57;100.00;102484.56;5080800;27;44819;-83
2022/03/21 08:25:30;;;;;;;;;38.67;34.67;;;;;13.65;100.00;102480.66;5083057;27;44765;-81
2022/03/21 08:27:55;;;;;;;;;53.00;43.00;;;;;13.77;100.00;102478.19;5083501;27;45408;-84
2022/03/21 08:30:21;;;;;;;;;52.00;43.00;;;;;13.84;100.00;102492.09;5082625;27;45456;-82
2022/03/21 08:32:48;;;;;;;;;53.00;42.33;;;;;13.90;100.00;102486.44;5083087;27;44875;-84
2022/03/21 08:35:16;;;;;;;;;44.67;38.67;;;;;13.93;100.00;102496.97;5085798;27;44919;-83
2022/03/21 08:37:42;;;;;;;;;51.00;43.00;;;;;13.98;100.00;102494.91;5083829;27;46704;-86
2022/03/21 08:40:09;;;;;;;;;48.67;40.67;;;;;14.06;100.00;102499.84;5084734;27;44830;-84
2022/03/21 08:42:35;;;;;;;;;48.67;39.33;;;;;14.10;100.00;102498.72;5082980;28;45470;-84
2022/03/21 08:45:00;;;;;;;;;52.33;42.33;;;;;14.15;100.00;102492.19;5077188;27;44868;-86
2022/03/21 08:47:26;;;;;;;;;52.33;41.67;;;;;14.21;100.00;102488.31;5082383;27;46737;-87
2022/03/21 08:49:51;;;;;;;;;46.33;39.00;;;;;14.28;100.00;102487.03;5061549;28;45305;-87
2022/03/21 08:52:19;;;;;;;;;54.00;41.33;;;;;14.31;100.00;102497.59;5063539;28;45506;-85
2022/03/21 08:54:45;;;;;;;;;45.00;39.67;;;;;14.36;100.00;102489.31;5070884;28;45311;-87
2022/03/21 08:57:11;;;;;;;;;46.00;40.00;;;;;14.44;100.00;102488.88;5084585;27;45347;-88
2022/03/21 08:59:37;;;;;;;;;51.67;40.33;;;;;14.58;100.00;102483.66;5071050;27;44717;-86
2022/03/21 09:02:03;;;;;;;;;49.67;41.33;;;;;14.68;100.00;102487.53;5074830;27;44787;-87
2022/03/21 09:04:30;;;;;;;;;49.67;43.00;;;;;14.84;100.00;102487.53;5066818;28;44893;-87
2022/03/21 09:06:56;;;;;;;;;36.33;33.67;;;;;14.92;100.00;102482.63;5071525;27;46603;-87
2022/03/21 09:09:21;;;;;;;;;30.67;29.33;;;;;14.99;100.00;102480.44;5060728;28;45358;-86
2022/03/21 09:11:47;;;;;;;;;44.33;37.00;;;;;15.05;100.00;102480.97;5066381;27;45150;-86
2022/03/21 09:14:13;;;;;;;;;36.25;33.75;;;;;15.13;100.00;102473.34;5081181;27;44801;-85
2022/03/21 09:16:39;;;;;;;;;38.67;31.33;;;;;15.23;100.00;102479.03;5071292;28;46484;-87
2022/03/21 09:19:05;;;;;;;;;47.67;35.00;;;;;15.29;100.00;102476.00;5072637;27;44667;-86
2022/03/21 09:21:32;;;;;;;;;44.00;34.00;;;;;15.30;100.00;102468.81;5065023;28;45422;-87
2022/03/21 09:23:57;;;;;;;;;43.50;35.50;;;;;15.40;100.00;102467.31;5079331;27;45021;-88
2022/03/21 09:26:23;;;;;;;;;37.33;33.00;;;;;15.50;100.00;102475.66;5081840;27;45953;-86
2022/03/21 09:28:49;;;;;;;;;46.25;33.50;;;;;15.57;100.00;102475.22;5080071;27;45233;-87
2022/03/21 09:31:16;;;;;;;;;37.00;32.00;;;;;15.60;100.00;102475.00;5081167;28;44842;-87
2022/03/21 09:33:42;;;;;;;;;39.50;32.00;;;;;15.64;100.00;102481.09;5075071;28;45507;-85
2022/03/21 09:36:08;;;;;;;;;39.00;33.25;;;;;15.73;100.00;102475.19;5073209;28;45075;-89
2022/03/21 09:38:36;;;;;;;;;37.75;28.75;;;;;15.87;100.00;102475.19;5069495;28;45222;-86
2022/03/21 09:41:03;;;;;;;;;31.25;29.25;;;;;15.94;100.00;102479.19;5081449;27;44870;-87
2022/03/21 09:43:29;;;;;;;;;35.00;31.00;;;;;16.05;100.00;102472.31;5083064;27;44912;-87
2022/03/21 09:45:58;;;;;;;;;33.50;29.25;;;;;16.16;100.00;102461.81;5074829;27;46713;-87
2022/03/21 09:48:26;;;;;;;;;32.00;26.50;;;;;16.25;100.00;102471.09;5062850;28;44888;-85
2022/03/21 09:50:56;;;;;;;;;24.75;21.25;;;;;16.26;100.00;102468.31;5067880;27;45244;-87
2022/03/21 09:53:23;;;;;;;;;27.50;24.75;;;;;16.29;100.00;102460.03;5080432;27;45481;-87
2022/03/21 09:55:50;;;;;;;;;30.50;26.00;;;;;16.36;100.00;102464.06;5074778;27;44991;-86
2022/03/21 09:58:15;;;;;;;;;29.50;23.75;;;;;16.45;100.00;102462.63;5071743;27;45001;-87
2022/03/21 10:00:42;;;;;;;;;23.25;21.75;;;;;16.34;100.00;102463.31;5072406;28;45419;-86
2022/03/21 10:03:08;;;;;;;;;27.50;25.75;;;;;16.34;100.00;102455.28;5063209;28;45271;-86
2022/03/21 10:05:46;;;;;;;;;24.50;20.75;;;;;16.46;100.00;102453.63;5077860;28;45230;-87
2022/03/21 10:08:29;;;;;;;;;24.40;21.80;;;;;16.55;100.00;102455.72;5074136;28;44747;-88
2022/03/21 10:11:02;;;;;;;;;19.00;16.50;;;;;16.70;100.00;102451.16;5078758;27;44810;-88
2022/03/21 10:13:31;;;;;;;;;18.25;16.50;;;;;16.77;100.00;102446.28;5059221;28;45422;-87
2022/03/21 10:16:10;;;;;;;;;27.50;26.50;;;;;16.78;100.00;102448.88;5060398;28;45461;-86
2022/03/21 10:18:37;;;;;;;;;24.50;22.75;;;;;16.84;100.00;102448.47;5057566;28;45190;-85
2022/03/21 10:21:14;;;;;;;;;28.75;23.00;;;;;16.85;100.00;102452.88;5076339;27;45308;-86
2022/03/21 10:23:41;;;;;;;;;21.00;18.25;;;;;16.99;100.00;102443.91;5080027;27;44866;-87
2022/03/21 10:26:26;;;;;;;;;24.00;22.75;;;;;17.08;100.00;102439.75;5078498;27;45837;-88
2022/03/21 10:28:56;;;;;;;;;24.20;18.60;;;;;17.20;100.00;102438.91;5063836;28;45335;-87
2022/03/21 10:31:34;;;;;;;;;26.75;21.25;;;;;17.25;100.00;102436.75;5074638;28;44789;-87
2022/03/21 10:34:01;;;;;;;;;16.25;15.50;;;;;17.29;99.75;102432.06;5062464;27;44843;-87
2022/03/21 10:36:26;;;;;;;;;17.75;17.25;;;;;17.21;100.00;102435.25;5076619;27;45379;-89
2022/03/21 10:39:09;;;;;;;;;20.00;17.25;;;;;17.27;100.00;102423.25;5059634;28;45330;-87
2022/03/21 10:41:36;;;;;;;;;12.00;8.40;;;;;17.35;100.00;102432.47;5061805;28;45294;-87
2022/03/21 10:44:04;;;;;;;;;18.00;16.50;;;;;17.45;100.00;102428.22;5079840;28;45583;-88
2022/03/21 10:46:29;;;;;;;;;18.40;17.00;;;;;17.53;100.00;102433.06;5069520;28;45433;-88
2022/03/21 10:49:07;;;;;;;;;17.50;11.25;;;;;17.54;100.00;102425.84;5084305;28;44851;-89
2022/03/21 10:51:54;;;;;;;;;15.60;15.00;;;;;17.62;99.85;102426.19;5081006;27;45358;-88
2022/03/21 10:54:39;;;;;;;;;15.75;13.75;;;;;17.67;98.52;102429.41;5074398;27;45030;-89
2022/03/21 10:57:07;;;;;;;;;20.75;17.75;;;;;17.70;99.44;102418.44;5075909;28;45339;-89
2022/03/21 10:59:33;;;;;;;;;16.80;16.80;;;;;17.80;99.45;102424.06;5079764;27;45390;-87
2022/03/21 11:02:17;;;;;;;;;24.40;20.00;;;;;17.88;98.89;102424.38;5069885;27;44827;-88
2022/03/21 11:04:44;;;;;;;;;20.25;19.00;;;;;17.99;98.41;102416.41;5064776;27;45446;-87
2022/03/21 11:07:11;;;;;;;;;19.00;16.75;;;;;18.07;97.91;102411.31;5070084;28;45117;-87
2022/03/21 11:09:41;;;;;;;;;28.20;25.40;;;;;17.96;95.49;102412.09;5074499;27;44797;-88
2022/03/21 11:12:09;;;;;;;;;20.60;17.20;;;;;17.85;96.17;102409.34;5066895;28;44831;-87
2022/03/21 11:14:40;;;;;;;;;18.75;16.00;;;;;17.91;97.16;102405.34;5074785;27;44943;-88
2022/03/21 11:17:07;;;;;;;;;15.00;15.00;;;;;17.85;96.58;102395.88;5062187;28;45808;-87
2022/03/21 11:19:34;;;;;;;;;18.20;18.20;;;;;17.85;96.52;102403.09;5072233;27;44829;-86
2022/03/21 11:22:02;;;;;;;;;25.20;18.60;;;;;18.02;97.76;102396.50;5058817;27;45327;-87
2022/03/21 11:24:30;;;;;;;;;14.25;12.25;;;;;18.17;96.84;102396.25;5059130;28;45201;-88
2022/03/21 11:27:33;;;;;;;;;15.40;15.40;;;;;18.28;95.59;102384.72;5067267;28;45269;-87